Time;durP1;ratioP1;P1;durP2;ratioP2;P2;SDS_P1;SDS_P2;PMS_P1;PMS_P2;Temp;Humidity;BMP_temperature;BMP_pressure;BME280_temperature;BME280_humidity;BME280_pressure;Samples;Min_cycle;Max_cycle;Signal;HPM_P1;HPM_P2
2020/12/01 00:00:05;;;;;;;71.57;36.72;;;6.70;99.90;;;;;;5080868;28;20102;-84
2020/12/01 00:02:31;;;;;;;;;;;6.70;99.90;;;;;;5084178;28;20512;-84
2020/12/01 00:04:56;;;;;;;74.05;34.95;;;6.70;99.90;;;;;;5086485;28;19978;-84
2020/12/01 00:07:22;;;;;;;69.53;35.58;;;6.60;99.90;;;;;;5085338;28;20012;-84
2020/12/01 00:09:47;;;;;;;60.97;34.05;;;6.70;99.90;;;;;;5081961;28;20035;-84
2020/12/01 00:12:13;;;;;;;68.03;34.65;;;6.70;99.90;;;;;;5074746;28;20016;-83
2020/12/01 00:14:38;;;;;;;63.70;34.50;;;6.70;99.90;;;;;;5073302;28;20393;-83
2020/12/01 00:17:04;;;;;;;63.88;35.72;;;6.70;99.90;;;;;;5083954;28;20020;-84
2020/12/01 00:19:29;;;;;;;64.68;32.10;;;6.80;99.90;;;;;;5081208;28;20028;-83
2020/12/01 00:21:55;;;;;;;60.38;33.05;;;6.80;99.90;;;;;;5079141;28;20096;-84
2020/12/01 00:24:20;;;;;;;61.97;32.25;;;6.80;99.90;;;;;;5081420;28;20020;-84
2020/12/01 00:26:46;;;;;;;70.97;35.30;;;6.80;99.90;;;;;;5081680;28;20374;-84
2020/12/01 00:29:12;;;;;;;61.65;32.63;;;6.90;99.90;;;;;;5084258;28;20020;-84
2020/12/01 00:31:41;;;;;;;65.00;33.50;;;6.90;99.90;;;;;;5080091;28;20016;-83
2020/12/01 00:34:14;;;;;;;57.20;35.03;;;6.90;99.90;;;;;;5073785;28;20024;-84
2020/12/01 00:36:40;;;;;;;55.38;31.52;;;6.90;99.90;;;;;;5079816;28;20020;-83
2020/12/01 00:39:08;;;;;;;58.63;31.63;;;6.90;99.90;;;;;;5076065;28;20086;-84
2020/12/01 00:41:35;;;;;;;51.88;28.08;;;7.00;99.90;;;;;;5044284;28;20028;-84
2020/12/01 00:44:01;;;;;;;48.03;23.92;;;7.00;99.90;;;;;;5062256;28;20099;-84
2020/12/01 00:46:28;;;;;;;43.22;23.13;;;7.00;99.90;;;;;;5051923;28;20104;-83
2020/12/01 00:48:53;;;;;;;38.38;21.20;;;7.00;99.90;;;;;;5045617;28;20013;-83
2020/12/01 00:51:19;;;;;;;29.40;15.63;;;7.10;99.90;;;;;;5047178;28;20162;-83
2020/12/01 00:53:45;;;;;;;19.75;7.53;;;7.10;99.90;;;;;;5044807;28;20062;-83
2020/12/01 00:56:11;;;;;;;14.80;4.63;;;7.10;99.90;;;;;;5041654;28;20051;-83
2020/12/01 00:58:37;;;;;;;11.57;3.28;;;7.00;99.90;;;;;;5035508;28;20032;-83
2020/12/01 01:01:03;;;;;;;7.45;2.40;;;7.00;99.90;;;;;;5062225;28;20437;-83
2020/12/01 01:03:29;;;;;;;8.25;1.88;;;7.00;99.90;;;;;;5064822;28;20083;-83
2020/12/01 01:05:54;;;;;;;7.53;1.10;;;7.00;99.90;;;;;;5065629;28;20017;-83
2020/12/01 01:08:20;;;;;;;4.88;1.38;;;7.00;99.90;;;;;;5061460;28;20017;-82
2020/12/01 01:10:46;;;;;;;4.40;1.45;;;7.00;99.90;;;;;;5044040;28;20028;-82
2020/12/01 01:13:11;;;;;;;4.43;1.10;;;7.10;99.90;;;;;;5043975;28;20036;-83
2020/12/01 01:15:37;;;;;;;3.95;1.10;;;7.10;99.90;;;;;;5046195;28;20082;-82
2020/12/01 01:18:03;;;;;;;5.38;0.90;;;7.10;99.90;;;;;;5062824;28;20424;-82
2020/12/01 01:20:29;;;;;;;4.10;0.70;;;7.10;99.90;;;;;;5045058;28;20028;-82
2020/12/01 01:22:55;;;;;;;4.20;0.98;;;7.20;99.90;;;;;;5061323;28;20062;-82
2020/12/01 01:25:21;;;;;;;4.93;0.90;;;7.20;99.90;;;;;;5061323;28;20092;-83
2020/12/01 01:27:47;;;;;;;6.10;1.20;;;7.20;99.90;;;;;;5036322;28;20028;-82
2020/12/01 01:30:16;;;;;;;5.53;1.20;;;7.20;99.90;;;;;;5042839;28;20036;-84
2020/12/01 01:32:42;;;;;;;9.18;1.50;;;7.20;99.90;;;;;;5048614;28;20013;-83
2020/12/01 01:35:07;;;;;;;5.88;1.27;;;7.20;99.90;;;;;;5062041;28;20036;-83
2020/12/01 01:37:33;;;;;;;11.35;1.70;;;7.20;99.90;;;;;;5045515;28;20047;-83
2020/12/01 01:39:58;;;;;;;19.27;1.63;;;7.20;99.90;;;;;;5061204;28;20045;-83
2020/12/01 01:42:24;;;;;;;7.32;1.10;;;7.20;99.90;;;;;;5043031;28;20039;-83
2020/12/01 01:44:49;;;;;;;11.88;1.02;;;7.20;99.90;;;;;;5064053;28;20096;-83
2020/12/01 01:47:21;;;;;;;12.35;1.25;;;7.20;99.90;;;;;;5044204;28;20484;-83
2020/12/01 01:49:52;;;;;;;12.90;1.50;;;7.20;99.90;;;;;;5044687;28;20033;-83
2020/12/01 01:52:25;;;;;;;17.08;1.65;;;7.20;99.90;;;;;;5061119;28;20017;-83
2020/12/01 01:54:57;;;;;;;11.38;1.73;;;7.20;99.90;;;;;;5063566;28;20489;-83
2020/12/01 01:57:24;;;;;;;18.63;2.58;;;7.20;99.90;;;;;;5047468;28;20032;-83
2020/12/01 01:59:50;;;;;;;17.48;2.60;;;7.20;99.90;;;;;;5047511;28;20481;-83
2020/12/01 02:02:16;;;;;;;16.35;2.25;;;7.20;99.90;;;;;;5066315;28;20020;-83
2020/12/01 02:04:41;;;;;;;13.52;1.90;;;7.20;99.90;;;;;;5048634;28;20012;-83
2020/12/01 02:07:07;;;;;;;14.48;2.63;;;7.10;99.90;;;;;;5049199;28;20017;-83
2020/12/01 02:09:35;;;;;;;17.80;2.83;;;7.10;99.90;;;;;;5065359;28;20029;-83
2020/12/01 02:12:04;;;;;;;21.42;1.98;;;7.10;99.90;;;;;;5039081;28;20481;-83
2020/12/01 02:14:40;;;;;;;11.52;1.50;;;7.10;99.90;;;;;;5048215;28;20021;-83
2020/12/01 02:17:30;;;;;;;10.52;1.40;;;7.10;99.90;;;;;;5065203;28;20068;-83
2020/12/01 02:20:01;;;;;;;16.73;1.52;;;7.00;99.90;;;;;;5067831;28;20024;-83
2020/12/01 02:22:26;;;;;;;14.20;1.92;;;7.00;99.90;;;;;;5063113;28;20390;-83
2020/12/01 02:24:53;;;;;;;13.65;1.75;;;6.90;99.90;;;;;;5046791;28;20031;-83
2020/12/01 02:27:23;;;;;;;17.23;2.38;;;6.90;99.90;;;;;;5064060;28;20013;-83
2020/12/01 02:29:51;;;;;;;12.18;2.58;;;6.90;99.90;;;;;;5065833;28;20075;-83
2020/12/01 02:32:19;;;;;;;22.85;2.60;;;6.90;99.90;;;;;;5066604;28;20051;-83
2020/12/01 02:34:46;;;;;;;17.30;1.80;;;6.90;99.90;;;;;;5066530;28;20036;-82
2020/12/01 02:37:17;;;;;;;14.32;1.70;;;6.90;99.90;;;;;;5066870;28;20081;-83
2020/12/01 02:39:43;;;;;;;17.20;2.08;;;6.90;99.90;;;;;;5061020;28;20053;-83
2020/12/01 02:42:13;;;;;;;17.88;2.22;;;6.90;99.90;;;;;;5048666;28;20485;-83
2020/12/01 02:44:38;;;;;;;;;;;6.90;99.90;;;;;;5047477;28;20504;-83
2020/12/01 02:47:05;;;;;;;20.17;1.92;;;6.80;99.90;;;;;;5045403;28;19904;-83
2020/12/01 02:49:32;;;;;;;23.20;2.28;;;6.80;99.90;;;;;;5048855;28;20421;-83
2020/12/01 02:51:58;;;;;;;18.67;1.75;;;6.80;99.90;;;;;;5065844;28;20488;-83
2020/12/01 02:54:24;;;;;;;15.65;1.85;;;6.80;99.90;;;;;;5065961;28;20035;-83
2020/12/01 02:56:49;;;;;;;16.45;1.95;;;6.80;99.90;;;;;;5045625;28;20116;-83
2020/12/01 02:59:16;;;;;;;18.88;1.65;;;6.80;99.90;;;;;;5045897;28;20124;-83
2020/12/01 03:01:42;;;;;;;12.30;1.88;;;6.80;99.90;;;;;;5046771;28;20013;-83
2020/12/01 03:04:08;;;;;;;19.65;2.05;;;6.80;99.90;;;;;;5045080;28;20027;-83
2020/12/01 03:06:33;;;;;;;35.95;3.28;;;6.80;99.90;;;;;;5049256;28;20021;-83
2020/12/01 03:08:59;;;;;;;21.45;2.63;;;6.70;99.90;;;;;;5045068;28;20109;-83
2020/12/01 03:11:25;;;;;;;23.95;3.45;;;6.70;99.90;;;;;;5062797;28;20031;-83
2020/12/01 03:13:51;;;;;;;18.63;2.95;;;6.70;99.90;;;;;;5047763;28;20489;-83
2020/12/01 03:16:16;;;;;;;25.77;2.80;;;6.70;99.90;;;;;;5046397;28;20028;-83
2020/12/01 03:18:44;;;;;;;16.33;2.60;;;6.70;99.90;;;;;;5048133;28;20031;-83
2020/12/01 03:21:12;;;;;;;29.30;3.63;;;6.70;99.90;;;;;;5066106;28;20107;-83
2020/12/01 03:23:38;;;;;;;27.90;3.42;;;6.60;99.90;;;;;;5044972;28;20112;-83
2020/12/01 03:26:04;;;;;;;22.42;3.00;;;6.70;99.90;;;;;;5047098;28;20016;-83
2020/12/01 03:28:30;;;;;;;16.13;2.53;;;6.70;99.90;;;;;;5063672;28;20431;-83
2020/12/01 03:30:56;;;;;;;25.48;2.53;;;6.60;99.90;;;;;;5048512;28;20021;-83
2020/12/01 03:33:22;;;;;;;14.48;1.90;;;6.60;99.90;;;;;;5044599;28;20024;-83
2020/12/01 03:35:48;;;;;;;14.05;1.42;;;6.60;99.90;;;;;;5048595;28;20035;-83
2020/12/01 03:38:14;;;;;;;18.23;1.55;;;6.50;99.90;;;;;;5045045;28;20021;-83
2020/12/01 03:40:39;;;;;;;12.80;1.60;;;6.50;99.90;;;;;;5062262;28;20045;-83
2020/12/01 03:43:05;;;;;;;17.35;1.42;;;6.50;99.90;;;;;;5065112;28;20406;-83
2020/12/01 03:45:32;;;;;;;9.35;1.20;;;6.50;99.90;;;;;;5045218;28;20013;-83
2020/12/01 03:47:57;;;;;;;5.35;0.80;;;6.50;99.90;;;;;;5046009;28;20372;-83
2020/12/01 03:50:24;;;;;;;8.57;1.33;;;6.50;99.90;;;;;;5046217;28;20473;-83
2020/12/01 03:52:50;;;;;;;12.25;1.20;;;6.50;99.90;;;;;;5063982;28;20036;-83
2020/12/01 03:55:17;;;;;;;12.98;1.10;;;6.60;99.90;;;;;;5044638;28;20024;-83
2020/12/01 03:57:43;;;;;;;11.40;1.20;;;6.50;99.90;;;;;;5044278;28;20037;-83
2020/12/01 04:00:10;;;;;;;16.25;1.67;;;6.50;99.90;;;;;;5062668;28;20504;-83
2020/12/01 04:02:36;;;;;;;13.70;0.98;;;6.50;99.90;;;;;;5045581;28;20020;-83
2020/12/01 04:05:02;;;;;;;10.07;1.15;;;6.50;99.90;;;;;;5044890;28;20017;-83
2020/12/01 04:07:28;;;;;;;11.30;1.00;;;6.40;99.90;;;;;;5060850;28;20492;-83
2020/12/01 04:09:53;;;;;;;17.52;1.30;;;6.40;99.90;;;;;;5044687;28;20025;-83
2020/12/01 04:12:19;;;;;;;12.20;1.67;;;6.40;99.90;;;;;;5046079;28;20546;-83
2020/12/01 04:14:44;;;;;;;13.48;0.85;;;6.40;99.90;;;;;;5045439;28;20024;-83
2020/12/01 04:17:10;;;;;;;7.60;0.80;;;6.30;99.90;;;;;;5064180;28;20362;-83
2020/12/01 04:19:35;;;;;;;10.15;0.82;;;6.30;99.90;;;;;;5064514;28;20032;-83
2020/12/01 04:22:01;;;;;;;10.25;1.27;;;6.30;99.90;;;;;;5063803;28;20104;-83
2020/12/01 04:24:26;;;;;;;8.85;0.70;;;6.30;99.90;;;;;;5044208;28;20361;-83
2020/12/01 04:26:52;;;;;;;10.10;0.80;;;6.30;99.90;;;;;;5046812;28;20500;-83
2020/12/01 04:29:17;;;;;;;8.75;1.00;;;6.30;99.90;;;;;;5044692;28;20555;-83
2020/12/01 04:31:43;;;;;;;10.27;0.70;;;6.30;99.90;;;;;;5063080;28;20045;-83
2020/12/01 04:34:08;;;;;;;5.72;0.75;;;6.30;99.90;;;;;;5064674;28;20094;-83
2020/12/01 04:36:34;;;;;;;10.80;1.00;;;6.30;99.90;;;;;;5046027;28;20024;-83
2020/12/01 04:38:59;;;;;;;5.05;0.70;;;6.40;99.90;;;;;;5045827;28;20032;-83
2020/12/01 04:41:25;;;;;;;4.10;0.60;;;6.40;99.90;;;;;;5043792;28;20028;-83
2020/12/01 04:43:56;;;;;;;5.25;0.60;;;6.40;99.90;;;;;;5061929;28;20474;-83
2020/12/01 04:46:25;;;;;;;6.63;0.70;;;6.40;99.90;;;;;;5063598;28;20066;-83
2020/12/01 04:48:57;;;;;;;10.57;1.40;;;6.40;99.90;;;;;;5061954;28;20020;-83
2020/12/01 04:51:38;;;;;;;7.20;0.75;;;6.40;99.90;;;;;;5063310;28;20031;-83
2020/12/01 04:54:15;;;;;;;8.90;1.02;;;6.40;99.90;;;;;;5061108;28;20095;-83
2020/12/01 04:57:02;;;;;;;6.07;1.00;;;6.50;99.90;;;;;;5043408;28;20377;-83
2020/12/01 04:59:59;;;;;;;9.15;0.73;;;6.50;99.90;;;;;;5045258;28;20067;-83
2020/12/01 05:02:50;;;;;;;5.32;0.50;;;6.50;99.90;;;;;;5044010;28;20051;-83
2020/12/01 05:05:52;;;;;;;7.95;0.52;;;6.60;99.90;;;;;;5053412;28;20017;-83
2020/12/01 05:08:45;;;;;;;1.48;0.30;;;6.60;99.90;;;;;;5051817;28;20044;-83
2020/12/01 05:11:20;;;;;;;3.40;0.40;;;6.70;99.90;;;;;;5063034;28;20025;-83
2020/12/01 05:13:56;;;;;;;4.68;0.40;;;6.70;99.90;;;;;;5060606;28;20025;-84
2020/12/01 05:16:42;;;;;;;4.97;0.40;;;6.70;99.90;;;;;;5045069;28;20020;-83
2020/12/01 05:19:40;;;;;;;5.57;0.30;;;6.70;99.90;;;;;;5062700;28;20035;-83
2020/12/01 05:22:06;;;;;;;4.18;0.40;;;6.80;99.90;;;;;;5045408;28;20511;-83
2020/12/01 05:24:50;;;;;;;4.72;0.50;;;6.80;99.90;;;;;;5042471;28;20036;-83
2020/12/01 05:27:24;;;;;;;3.35;0.38;;;6.90;99.90;;;;;;5058783;28;20159;-83
2020/12/01 05:30:05;;;;;;;4.65;0.57;;;6.90;99.90;;;;;;5043324;28;20017;-83
2020/12/01 05:32:38;;;;;;;4.43;0.40;;;6.90;99.90;;;;;;5068844;28;20028;-84
2020/12/01 05:35:25;;;;;;;6.70;0.68;;;6.90;99.90;;;;;;5063076;28;20472;-84
2020/12/01 05:37:58;;;;;;;2.13;0.45;;;6.90;99.90;;;;;;5072525;28;20099;-84
2020/12/01 05:40:26;;;;;;;2.20;0.40;;;6.90;99.90;;;;;;5078419;28;20500;-83
2020/12/01 05:42:53;;;;;;;6.45;0.40;;;6.90;99.90;;;;;;5092923;28;20066;-83
2020/12/01 05:45:24;;;;;;;2.92;0.40;;;6.90;99.90;;;;;;5093352;28;20384;-83
2020/12/01 05:47:59;;;;;;;2.60;0.50;;;6.90;99.90;;;;;;5091779;28;20093;-83
2020/12/01 05:50:26;;;;;;;9.10;1.08;;;6.90;99.90;;;;;;5091646;28;20059;-83
2020/12/01 05:53:05;;;;;;;4.97;0.80;;;6.90;99.90;;;;;;5091631;28;20472;-83
2020/12/01 05:55:31;;;;;;;10.35;1.00;;;6.90;99.90;;;;;;5091796;28;20055;-83
2020/12/01 05:58:12;;;;;;;8.60;0.90;;;6.90;99.90;;;;;;5090916;28;20078;-83
2020/12/01 06:00:41;;;;;;;7.30;0.80;;;6.90;99.90;;;;;;5091575;28;20028;-83
2020/12/01 06:03:25;;;;;;;8.70;1.10;;;6.90;99.90;;;;;;5091293;28;20455;-83
2020/12/01 06:05:53;;;;;;;4.38;0.95;;;7.00;99.90;;;;;;5083979;28;20024;-83
2020/12/01 06:08:48;;;;;;;7.38;1.40;;;6.90;99.90;;;;;;5081856;28;20020;-83
2020/12/01 06:11:38;;;;;;;5.38;1.40;;;6.90;99.90;;;;;;5082207;28;20024;-83
2020/12/01 06:14:16;;;;;;;3.15;1.80;;;6.90;99.90;;;;;;5080983;28;20162;-83
2020/12/01 06:16:50;;;;;;;5.63;2.03;;;7.00;99.90;;;;;;5091432;28;20028;-83
2020/12/01 06:19:48;;;;;;;9.85;3.13;;;6.90;99.90;;;;;;5091600;28;20073;-84
2020/12/01 06:22:19;;;;;;;15.45;4.13;;;7.00;99.90;;;;;;5091408;28;20078;-83
2020/12/01 06:25:14;;;;;;;16.63;5.47;;;6.90;99.90;;;;;;5092569;28;20027;-83
2020/12/01 06:27:58;;;;;;;20.25;6.85;;;7.00;99.90;;;;;;5090771;28;20024;-83
2020/12/01 06:30:53;;;;;;;13.00;5.47;;;6.90;99.90;;;;;;5091298;28;20031;-83
2020/12/01 06:33:57;;;;;;;17.30;5.50;;;7.00;99.90;;;;;;5070792;28;20071;-83
2020/12/01 06:36:43;;;;;;;19.20;6.00;;;6.90;99.90;;;;;;5048348;28;20119;-82
2020/12/01 06:39:28;;;;;;;14.02;5.43;;;7.00;99.90;;;;;;5070843;28;20045;-83
2020/12/01 06:42:25;;;;;;;15.70;7.05;;;7.00;99.90;;;;;;5070988;28;20035;-82
2020/12/01 06:44:55;;;;;;;14.85;5.55;;;7.00;99.90;;;;;;5074813;28;20025;-83
2020/12/01 06:47:29;;;;;;;13.20;5.75;;;7.00;99.90;;;;;;5074578;28;20044;-82
2020/12/01 06:49:59;;;;;;;13.20;5.07;;;7.00;99.90;;;;;;5074584;28;20021;-82
2020/12/01 06:52:25;;;;;;;;;;;7.00;99.90;;;;;;5074860;28;20384;-82
2020/12/01 06:54:56;;;;;;;9.80;4.80;;;7.00;99.90;;;;;;5074376;28;19904;-82
2020/12/01 06:57:27;;;;;;;13.73;5.30;;;7.00;99.90;;;;;;5073839;28;20416;-83
2020/12/01 06:59:53;;;;;;;13.88;6.05;;;7.10;99.90;;;;;;5074239;28;20515;-82
2020/12/01 07:02:21;;;;;;;13.48;5.72;;;7.20;99.90;;;;;;5075448;28;20028;-82
2020/12/01 07:04:47;;;;;;;12.48;5.70;;;7.20;99.90;;;;;;5075198;28;20074;-83
2020/12/01 07:07:44;;;;;;;8.10;4.40;;;7.20;99.90;;;;;;5081577;28;20448;-83
2020/12/01 07:10:25;;;;;;;10.98;4.07;;;7.30;99.90;;;;;;5066718;28;20427;-82
2020/12/01 07:13:02;;;;;;;7.47;3.72;;;7.30;99.90;;;;;;5075207;28;20030;-83
2020/12/01 07:15:46;;;;;;;11.82;5.38;;;7.30;99.90;;;;;;5078202;28;20504;-82
2020/12/01 07:18:26;;;;;;;8.25;3.72;;;7.40;99.90;;;;;;5084465;28;20039;-83
2020/12/01 07:21:14;;;;;;;12.75;4.05;;;7.40;99.90;;;;;;5083057;28;20024;-83
2020/12/01 07:23:56;;;;;;;8.95;4.07;;;7.40;99.90;;;;;;5083859;28;20020;-83
2020/12/01 07:26:52;;;;;;;8.98;5.35;;;7.50;99.90;;;;;;5084010;28;20023;-84
2020/12/01 07:29:52;;;;;;;11.23;5.13;;;7.50;99.90;;;;;;5080513;28;20044;-84
2020/12/01 07:32:22;;;;;;;11.47;4.87;;;7.60;99.90;;;;;;5082677;28;20427;-83
2020/12/01 07:35:02;;;;;;;11.20;4.78;;;7.60;99.90;;;;;;5082521;28;20024;-83
2020/12/01 07:38:02;;;;;;;11.23;3.70;;;7.60;99.90;;;;;;5082242;28;20021;-83
2020/12/01 07:40:31;;;;;;;10.55;3.40;;;7.70;99.90;;;;;;5065074;28;20112;-83
2020/12/01 07:43:00;;;;;;;14.13;3.53;;;7.70;99.90;;;;;;5082941;28;20104;-83
2020/12/01 07:45:28;;;;;;;8.90;2.60;;;7.80;99.90;;;;;;5083575;28;20384;-83
2020/12/01 07:47:59;;;;;;;10.85;3.70;;;7.80;99.90;;;;;;5084200;28;20056;-83
2020/12/01 07:50:27;;;;;;;7.90;2.53;;;7.90;99.90;;;;;;5083847;28;20024;-84
2020/12/01 07:53:00;;;;;;;7.57;3.10;;;7.90;99.90;;;;;;5084876;28;20021;-84
2020/12/01 07:55:34;;;;;;;5.47;2.72;;;8.00;99.90;;;;;;5081754;28;20488;-84
2020/12/01 07:58:07;;;;;;;7.15;2.67;;;8.00;99.90;;;;;;5084015;28;20024;-83
2020/12/01 08:00:33;;;;;;;4.43;2.17;;;8.00;99.90;;;;;;5073216;28;20115;-82
2020/12/01 08:03:11;;;;;;;6.22;2.67;;;8.00;99.90;;;;;;5073321;28;20120;-84
2020/12/01 08:05:37;;;;;;;8.50;3.00;;;8.00;99.90;;;;;;5074372;28;20024;-83
2020/12/01 08:08:02;;;;;;;7.20;2.33;;;8.00;99.90;;;;;;5072980;28;20385;-84
2020/12/01 08:10:29;;;;;;;8.43;2.78;;;8.10;99.90;;;;;;5073275;28;20033;-84
2020/12/01 08:13:01;;;;;;;8.60;2.83;;;8.10;99.90;;;;;;5074302;28;20120;-84
2020/12/01 08:15:27;;;;;;;13.90;3.25;;;8.00;99.90;;;;;;5083300;28;20032;-84
2020/12/01 08:17:53;;;;;;;16.67;3.13;;;8.00;99.90;;;;;;5087888;28;20028;-84
2020/12/01 08:20:25;;;;;;;14.70;3.58;;;8.10;99.90;;;;;;5088473;28;20032;-84
2020/12/01 08:23:02;;;;;;;16.65;3.25;;;8.00;99.90;;;;;;5081244;28;20477;-84
2020/12/01 08:25:30;;;;;;;16.73;3.42;;;8.10;99.90;;;;;;5081105;28;20029;-84
2020/12/01 08:28:13;;;;;;;17.92;3.08;;;8.00;99.90;;;;;;5082614;28;20031;-84
2020/12/01 08:31:05;;;;;;;11.90;2.13;;;8.10;99.90;;;;;;5091284;28;20028;-83
2020/12/01 08:34:00;;;;;;;19.60;2.55;;;8.10;99.90;;;;;;5091939;28;20031;-82
2020/12/01 08:36:43;;;;;;;12.40;2.13;;;8.00;99.90;;;;;;5089389;28;20024;-83
2020/12/01 08:39:46;;;;;;;28.88;4.10;;;8.00;99.90;;;;;;5068699;28;20045;-83
2020/12/01 08:42:56;;;;;;;19.58;3.10;;;8.10;99.90;;;;;;5036427;28;20066;-83
2020/12/01 08:45:37;;;;;;;22.75;2.53;;;8.00;99.90;;;;;;5001389;28;20044;-84
2020/12/01 08:48:07;;;;;;;21.52;2.92;;;8.10;99.90;;;;;;5073575;28;20025;-83
2020/12/01 08:50:38;;;;;;;21.98;2.45;;;8.00;99.90;;;;;;5073300;28;20025;-83
2020/12/01 08:53:17;;;;;;;22.75;2.95;;;8.10;99.90;;;;;;5073197;28;20426;-84
2020/12/01 08:55:43;;;;;;;30.00;3.42;;;8.10;99.90;;;;;;5055318;28;20477;-84
2020/12/01 08:58:24;;;;;;;17.75;2.63;;;8.10;99.90;;;;;;5055538;28;20028;-84
2020/12/01 09:01:02;;;;;;;20.88;2.60;;;8.10;99.90;;;;;;5055305;28;20024;-83
2020/12/01 09:03:31;;;;;;;25.38;3.35;;;8.10;99.90;;;;;;5073005;28;20056;-84
2020/12/01 09:05:57;;;;;;;35.20;4.43;;;8.10;99.90;;;;;;5054709;28;20483;-84
2020/12/01 09:08:47;;;;;;;22.10;3.30;;;8.10;99.90;;;;;;5055157;28;20542;-84
2020/12/01 09:13:57;;;;;;;28.23;3.72;;;8.20;99.90;;;;;;5073233;28;20108;-84
2020/12/01 09:16:53;;;;;;;27.20;3.25;;;8.20;99.90;;;;;;5073221;28;20431;-84
2020/12/01 09:22:10;;;;;;;17.83;2.60;;;8.20;99.90;;;;;;5072872;28;20210;-85
2020/12/01 09:24:36;;;;;;;23.23;3.72;;;8.20;99.90;;;;;;5048645;28;20020;-84
2020/12/01 09:27:07;;;;;;;22.55;3.55;;;8.20;99.90;;;;;;5043802;28;20070;-84
2020/12/01 09:29:34;;;;;;;18.45;2.88;;;8.20;99.90;;;;;;5045542;28;20027;-84
2020/12/01 09:32:00;;;;;;;32.38;4.22;;;8.20;99.90;;;;;;5043175;28;20025;-84
2020/12/01 09:34:33;;;;;;;19.33;3.22;;;8.30;99.90;;;;;;5060421;28;20376;-85
2020/12/01 09:37:03;;;;;;;27.92;3.85;;;8.30;99.90;;;;;;5046364;28;20025;-84
2020/12/01 09:39:30;;;;;;;;;;;8.30;99.90;;;;;;5053627;28;20040;-87
2020/12/01 09:42:33;;;;;;;32.30;3.28;;;8.30;99.90;;;;;;5073775;28;19909;-88
2020/12/01 09:45:02;;;;;;;32.45;4.07;;;8.30;99.90;;;;;;5073067;28;20553;-89
2020/12/01 09:50:31;;;;;;;17.25;2.35;;;8.30;99.90;;;;;;5060171;28;20036;-84
2020/12/01 09:53:14;;;;;;;21.15;2.83;;;8.30;99.90;;;;;;5076208;28;20063;-85
2020/12/01 09:58:27;;;;;;;24.15;3.85;;;8.40;99.90;;;;;;5085487;28;20111;-84
2020/12/01 10:36:03;;;;;;;28.67;3.55;;;8.70;99.90;;;;;;5086056;28;20032;-84
2020/12/01 10:38:29;;;;;;;18.00;2.80;;;8.70;99.90;;;;;;5083377;28;20021;-84
2020/12/01 10:40:56;;;;;;;26.50;2.95;;;8.80;99.90;;;;;;5084654;28;20047;-85
2020/12/01 10:43:21;;;;;;;18.80;2.55;;;8.80;99.90;;;;;;5084234;28;20051;-85
2020/12/01 10:48:52;;;;;;;22.05;3.67;;;8.90;99.90;;;;;;5086150;28;20035;-85
2020/12/01 10:51:18;;;;;;;18.77;3.08;;;8.90;99.90;;;;;;5082018;28;20388;-85
2020/12/01 10:53:43;;;;;;;17.80;2.83;;;8.90;99.90;;;;;;5082298;28;20031;-85
2020/12/01 10:56:09;;;;;;;18.95;2.05;;;8.90;99.90;;;;;;5084110;28;20047;-85
2020/12/01 10:58:35;;;;;;;20.55;2.40;;;9.00;99.90;;;;;;5083097;28;20008;-84
2020/12/01 11:01:01;;;;;;;12.30;2.13;;;9.00;99.90;;;;;;5094207;28;20028;-84
2020/12/01 11:03:27;;;;;;;16.88;2.40;;;9.00;99.90;;;;;;5094589;28;20035;-85
2020/12/01 11:05:53;;;;;;;33.88;3.75;;;9.10;99.90;;;;;;5095863;28;20073;-84
2020/12/01 11:08:18;;;;;;;21.60;2.25;;;9.10;99.90;;;;;;5091355;28;20024;-86
2020/12/01 11:13:19;;;;;;;18.05;2.05;;;9.10;99.90;;;;;;5167928;23;20073;-87
2020/12/01 11:15:45;;;;;;;15.18;2.95;;;9.10;99.90;;;;;;4983445;28;20457;-87
2020/12/01 11:18:10;;;;;;;26.88;3.10;;;9.10;99.90;;;;;;4983024;28;20018;-87
2020/12/01 11:20:36;;;;;;;20.98;2.92;;;9.10;99.90;;;;;;4981221;28;20122;-86
2020/12/01 11:23:02;;;;;;;21.27;2.83;;;9.10;99.90;;;;;;4989295;28;20049;-88
2020/12/01 11:25:28;;;;;;;14.60;2.95;;;9.10;99.90;;;;;;4981309;28;20026;-88
2020/12/01 11:27:53;;;;;;;22.73;3.67;;;9.10;99.90;;;;;;4983193;28;20022;-85
2020/12/01 11:30:21;;;;;;;18.33;2.88;;;9.10;99.90;;;;;;4985124;28;20030;-87
2020/12/01 11:32:47;;;;;;;16.60;2.38;;;9.10;99.90;;;;;;4985440;28;20046;-84
2020/12/01 11:35:13;;;;;;;24.70;3.45;;;9.20;99.90;;;;;;4988882;28;20029;-87
2020/12/01 11:37:40;;;;;;;24.02;3.53;;;9.20;99.90;;;;;;4987524;28;20109;-88
2020/12/01 11:40:07;;;;;;;19.52;2.90;;;9.20;99.90;;;;;;4985661;28;20030;-88
2020/12/01 11:42:33;;;;;;;16.38;2.78;;;9.30;99.90;;;;;;4989140;28;20104;-89
2020/12/01 11:44:58;;;;;;;16.52;3.10;;;9.20;99.90;;;;;;4982143;28;20113;-88
2020/12/01 11:47:24;;;;;;;20.95;2.85;;;9.30;99.90;;;;;;4987170;28;20054;-87
2020/12/01 11:49:50;;;;;;;27.52;3.63;;;9.30;99.90;;;;;;4986053;28;20023;-87
2020/12/01 11:52:15;;;;;;;17.10;2.45;;;9.30;99.90;;;;;;5003811;28;20085;-87
2020/12/01 11:54:41;;;;;;;24.77;3.10;;;9.30;99.90;;;;;;5003649;28;20048;-87
2020/12/01 11:57:06;;;;;;;22.63;2.47;;;9.30;99.90;;;;;;4988015;28;20027;-88
2020/12/01 11:59:32;;;;;;;23.67;3.20;;;9.20;99.90;;;;;;4987040;28;20053;-88
2020/12/01 12:01:57;;;;;;;23.80;2.80;;;9.20;99.90;;;;;;4987098;28;20539;-88
2020/12/01 12:04:23;;;;;;;19.58;2.50;;;9.20;99.90;;;;;;4988453;28;20026;-88
2020/12/01 12:06:49;;;;;;;20.60;2.42;;;9.20;99.90;;;;;;4986506;28;20108;-88
2020/12/01 12:09:15;;;;;;;15.65;2.03;;;9.20;99.90;;;;;;4989421;28;20470;-87
2020/12/01 12:11:40;;;;;;;12.52;2.10;;;9.20;99.90;;;;;;5005848;28;20492;-88
2020/12/01 12:14:07;;;;;;;14.95;2.45;;;9.20;99.90;;;;;;4986445;28;20136;-88
2020/12/01 12:16:32;;;;;;;21.75;2.50;;;9.20;99.90;;;;;;4988525;28;20053;-89
2020/12/01 12:18:58;;;;;;;14.52;2.10;;;9.20;99.90;;;;;;5004676;28;20018;-88
2020/12/01 12:21:24;;;;;;;22.52;3.13;;;9.20;99.90;;;;;;4987752;28;20476;-88
2020/12/01 12:23:50;;;;;;;23.63;2.92;;;9.20;99.90;;;;;;4986977;28;20026;-88
2020/12/01 12:26:16;;;;;;;25.35;3.38;;;9.20;99.90;;;;;;4986282;28;20019;-88
2020/12/01 12:28:42;;;;;;;15.30;1.83;;;9.20;99.90;;;;;;4988195;28;20072;-88
2020/12/01 12:31:10;;;;;;;12.23;2.28;;;9.20;99.90;;;;;;4988484;28;20501;-88
2020/12/01 12:33:36;;;;;;;23.88;2.50;;;9.20;99.90;;;;;;4986443;28;20029;-88
2020/12/01 12:36:01;;;;;;;18.42;2.35;;;9.20;99.90;;;;;;4988104;28;20116;-87
2020/12/01 12:38:28;;;;;;;15.45;2.00;;;9.20;99.90;;;;;;4987800;28;20065;-89
2020/12/01 12:40:54;;;;;;;16.60;1.80;;;9.30;99.90;;;;;;4987860;28;20030;-88
2020/12/01 12:43:20;;;;;;;13.90;2.53;;;9.30;99.90;;;;;;4988363;28;20025;-88
2020/12/01 12:45:45;;;;;;;23.67;3.22;;;9.30;99.90;;;;;;4987499;28;20109;-88
2020/12/01 12:48:11;;;;;;;18.13;2.28;;;9.30;99.90;;;;;;4986649;28;20060;-88
2020/12/01 12:50:37;;;;;;;20.30;2.17;;;9.20;99.90;;;;;;4986261;28;20029;-88
2020/12/01 12:53:03;;;;;;;18.10;3.03;;;9.20;99.90;;;;;;4986216;28;20022;-88
2020/12/01 12:55:29;;;;;;;17.67;2.95;;;9.20;99.90;;;;;;4986679;28;20049;-88
2020/12/01 12:57:58;;;;;;;15.75;1.83;;;9.20;99.90;;;;;;5004556;28;20485;-87
2020/12/01 13:00:28;;;;;;;20.30;2.65;;;9.20;99.90;;;;;;4990088;28;20502;-88
2020/12/01 13:02:54;;;;;;;19.98;2.35;;;9.30;99.90;;;;;;4983012;28;20425;-86
2020/12/01 13:05:20;;;;;;;22.33;3.38;;;9.20;99.90;;;;;;4977812;28;20473;-88
2020/12/01 13:07:46;;;;;;;14.93;2.05;;;9.30;99.90;;;;;;4987253;28;20030;-89
2020/12/01 13:10:12;;;;;;;17.17;2.30;;;9.30;99.90;;;;;;4987300;28;20105;-88
2020/12/01 13:12:37;;;;;;;17.20;2.13;;;9.30;99.90;;;;;;4985847;28;20054;-88
2020/12/01 13:15:04;;;;;;;19.92;3.17;;;9.30;99.90;;;;;;4996960;28;20457;-87
2020/12/01 13:17:29;;;;;;;21.13;2.95;;;9.30;99.90;;;;;;5014783;28;20030;-87
2020/12/01 13:19:54;;;;;;;13.27;2.00;;;9.30;99.90;;;;;;4996831;28;20038;-88
2020/12/01 13:22:20;;;;;;;23.00;3.42;;;9.30;99.90;;;;;;5001760;28;20023;-89
2020/12/01 13:24:46;;;;;;;21.88;3.03;;;9.30;99.90;;;;;;5016484;28;20021;-88
2020/12/01 13:27:11;;;;;;;19.08;2.33;;;9.30;99.90;;;;;;5016251;28;20029;-88
2020/12/01 13:29:37;;;;;;;18.25;2.50;;;9.40;99.90;;;;;;5016382;28;20022;-88
2020/12/01 13:32:02;;;;;;;9.13;1.83;;;9.40;99.90;;;;;;5003951;28;20022;-89
2020/12/01 13:34:28;;;;;;;11.05;1.40;;;9.40;99.90;;;;;;4997009;28;20481;-88
2020/12/01 13:36:54;;;;;;;16.15;2.00;;;9.50;99.90;;;;;;4996775;28;20153;-88
2020/12/01 13:39:20;;;;;;;17.83;2.30;;;9.50;99.90;;;;;;4996732;28;20477;-88
2020/12/01 13:41:50;;;;;;;19.00;3.30;;;9.50;99.90;;;;;;4996524;28;20029;-88
2020/12/01 13:44:15;;;;;;;;;;;9.50;99.90;;;;;;4996878;28;20029;-88
2020/12/01 13:46:41;;;;;;;10.50;1.83;;;9.40;99.90;;;;;;4996921;28;19913;-88
2020/12/01 13:49:08;;;;;;;16.08;2.20;;;9.40;99.90;;;;;;5014079;28;20105;-88
2020/12/01 13:51:34;;;;;;;15.50;2.53;;;9.40;99.90;;;;;;4996191;28;20116;-88
2020/12/01 13:53:59;;;;;;;11.95;1.70;;;9.50;99.90;;;;;;4996231;28;20080;-88
2020/12/01 13:56:25;;;;;;;17.65;2.40;;;9.50;99.90;;;;;;4996497;28;20034;-89
2020/12/01 13:58:50;;;;;;;16.70;1.63;;;9.50;99.90;;;;;;5013815;28;20635;-87